Fort Smith, Canada
Current Conditions -  °F | °C
As of 8:00 AM on Friday 19 Dec 2014 (Local Time) from CYSM Reporting Station
Broken Clouds Broken Clouds  
Wind Chill:   Ceiling: 200
Heat Index:   Visibility: 15mi
Dew Point: -4°   Wind: 3mph
Humidity: 85%   Direction: 110°ESE
Pressure: 29.84"   Gusts: NA
Location:  60.02°N, 111.89°W
Report Text: CYSM 191500Z 11003KT 060V150 15SM BKN002 M18/M20 A2984 RMK SC5 SLP128
Loading
Personal Weather Stations






























Interactive Weather Map New forecast layout! Learn more

10-Day Weather Forecast

Advertisements
Track Severe Weather on mobile